Tiempo atmosférico en la estación meteorológica de Puerto De San Isidro, León (1510 m.)



Fecha
DESCASC
Temp. máxima en grados centígrados (hora)
DESCASC
Temp. mínima en grados centígrados (hora)
DESCASC
Temp. media en grados centígrados
DESCASC
Racha de viento máxima en m/sg (hora)
DESCASC
Velocidad máxima media en intervalos de 10 minutos(hora)
DESCASC
Precipitaciones diarias en mm
DESCASC
Precipitaciones de 00:00 a 06:00 en mm
DESCASC
Precipitaciones de 06:00 a 12:00 en mm
DESCASC
Precipitaciones de 12:00 a 18:00 en mm
DESCASC
Precipitaciones de 18:00 a 24:00 en mm
DESCASC
28-02-2021 5.1 (15:00) -2.8 (08:30) 1.1 8.06 (23:59) 6.11 (14:20) 0 0 0 0 0
27-02-2021 6.2 (11:50) -1.3 (22:50) 2.4 7.22 (16:50) 5.83 (16:50) 0 0 0 0 0
26-02-2021 7 (16:00) 0.1 (02:30) 3.6 5.83 (12:30) 4.72 (15:10) 0 0 0 0 0
25-02-2021 5.9 (00:00) 1.3 (00:00) 3.6 13.33 (03:00) 5.56 (00:40) 0.4 0.4 0 0 0
24-02-2021 8.6 (15:40) 2.2 (00:00) 5.4 20 (09:10) 10 (04:40) 0 0 0 0 0
23-02-2021 6.6 (16:50) -1.7 (-00:0) 2.4 16.94 (04:40) 9.44 (04:10) 0 0 0 0 0
22-02-2021 4.1 (15:10) -3.4 (-00:0) 0.3 12.78 (03:00) 8.61 (01:30) 1.4 0.2 0.2 1 0
21-02-2021 5.6 (05:30) -1.9 (-00:0) 1.8 22.78 (09:40) 10.83 (09:40) 24 0 8.6 14.8 0.6
20-02-2021 5.5 (11:20) 2.6 (00:00) 4 29.44 (09:30) 12.5 (09:40) 22.4 0 0 8.4 14
19-02-2021 5.4 (15:10) 3.2 (00:00) 4.3 22.22 (23:59) 9.44 (12:40) -- -- -- 0 0
18-02-2021 5.9 (00:40) 3.2 (00:00) 4.6 23.33 (04:00) 8.61 (04:00) -- -- -- -- --
17-02-2021 6.1 (23:30) -1.1 (-00:0) 2.5 16.94 (22:10) 7.5 (11:00) -- -- -- -- --
16-02-2021 6.4 (00:00) 3.1 (00:00) 4.8 23.06 (07:00) 9.44 (07:40) -- -- -- -- --
15-02-2021 9.3 (16:20) 3.7 (00:00) 6.5 17.78 (22:50) 9.72 (12:10) -- -- -- -- --
14-02-2021 6.9 (14:00) 0.6 (00:00) 3.8 13.61 (21:50) 8.61 (07:40) -- -- -- -- --
13-02-2021 8.1 (16:00) -1.6 (-00:0) 3.3 11.39 (12:40) 6.94 (12:40) -- -- -- -- --
12-02-2021 6.6 (00:50) -1.3 (-00:0) 2.6 19.72 (13:40) 11.94 (13:10) -- -- -- -- --
11-02-2021 7 (14:10) 0.7 (00:00) 3.8 11.67 (21:50) 6.39 (13:00) -- -- -- -- --
10-02-2021 5.3 (17:20) -1.7 (-00:0) 1.8 16.94 (11:00) 12.78 (11:00) -- -- -- -- --
09-02-2021 2.3 (09:50) -1.7 (-00:0) 0.3 20.83 (13:30) 8.61 (12:40) -- -- -- -- --
08-02-2021 3.3 (15:30) -2.2 (-00:0) 0.5 14.72 (01:20) 8.33 (01:50) -- -- -- -- --
07-02-2021 0 (23:50) -8.4 (-00:0) -4.2 18.89 (21:40) 10.56 (20:50) -- -- -- -- --
06-02-2021 0 (00:00) -3.5 (-00:0) -1.8 13.33 (20:00) 7.5 (21:00) -- -- -- -- --
05-02-2021 2.7 (15:30) -0.2 (00:00) 1.3 8.61 (18:20) 5.56 (18:20) -- -- -- -- --
04-02-2021 3.3 (01:00) 0.5 (00:00) 1.9 11.94 (01:40) 6.11 (10:50) -- -- -- -- --
03-02-2021 5.8 (00:00) 3.1 (00:00) 4.5 20.56 (06:00) 9.44 (01:20) -- -- -- -- --
02-02-2021 6.4 (03:00) 3.4 (00:00) 4.9 18.06 (23:59) 10 (00:10) -- -- -- -- --
01-02-2021 7.9 (13:50) 3.4 (00:00) 5.7 23.33 (09:20) 14.44 (09:10) -- -- -- -- --

Gráficas

Temp. máximas Temp. mínimas Temp. medias Precipitaciones Rachas de viento máximas Velocidades máximas media en intervalos de 10 minutos

Datos horarios

Fecha y hora oficial Temperatura (ºC) Velocidad del viento (km/h) Dirección del viento Racha (km/h) Dirección de racha Precipitación (mm) Presión (hPa) Tendencia (hPa) Humedad (%)
2021-03-02 23:00:00 4.6 4 Sur 30 Sur 0.2 857.3 1.1 71
2021-03-02 22:00:00 4.4 5 Sudeste 20 Sur 0 856.9 1.2 75
2021-03-02 21:00:00 4.6 11 Sudeste 24 Sudeste 0 856.5 1.2 72
2021-03-02 20:00:00 4.8 9 Sudeste 30 Sudeste 0 856.2 1.2 73
2021-03-02 19:00:00 5.1 5 Sudoeste 27 Sudoeste 0 855.7 0.9 70
2021-03-02 18:00:00 5.3 8 Sudoeste 30 Sur 0 855.3 0.9 68
2021-03-02 17:00:00 5.3 13 Sudoeste 33 Sur 0 855 0.6 68
2021-03-02 16:00:00 5.4 8 Sur 45 Sur 0 854.8 0.1 71
2021-03-02 15:00:00 4.9 15 Sur 45 Sudeste 0 854.4 0 72
2021-03-02 14:00:00 4.9 19 Sur 42 Sur 0 854.4 0.6 70
2021-03-02 13:00:00 4.5 17 Sur 37 Sur 0 854.7 1.4 73
2021-03-02 12:00:00 3.6 15 Sur 36 Sur 0.6 854.4 1.5 81
2021-03-02 11:00:00 3 6 Este 30 Sudeste 0 853.8 1.7 90
2021-03-02 10:00:00 2.8 7 Este 36 Sur 0 853.3 1.7 89
2021-03-02 09:00:00 3.5 15 Sur 30 Sur 0.6 852.9 1.4 82
2021-03-02 08:00:00 2.6 13 Sudeste 26 Sur 2.4 852.1 0.9 84
2021-03-02 07:00:00 2.4 11 Este 34 Sudoeste 0.8 851.6 0.5 90
2021-03-02 06:00:00 3 15 Sur 41 Sur 0 851.5 0.5 88
2021-03-02 05:00:00 3.6 15 Sur 45 Sur 0 851.2 0.2 77
2021-03-02 04:00:00 2.9 14 Sur 44 Sudoeste 0 851.1 0.1 89
2021-03-02 03:00:00 3.1 13 Sur 47 Sur 0 851 -- 86
2021-03-02 02:00:00 3.3 16 Sur 46 Sur 0 851 -- 88
2021-03-02 01:00:00 3.2 14 Sur 63 Sur 0 851 -- 88
2021-03-02 00:00:00 3 13 Sudeste 56 Este 0.2 851.1 -- 90
2021-03-01 23:00:00 3.1 21 Este 63 Este 2 851 -- 86
2021-03-01 22:00:00 3.4 14 Oeste 38 Este 0.8 850.7 -- 86
2021-03-01 21:00:00 1.4 7 Nordeste 21 Este 6.2 850.7 -- 91
2021-03-01 20:00:00 1.8 4 Este 26 Sudeste 3.6 850.5 -- 89
2021-03-01 19:00:00 2.1 14 Este 38 Este 4 850 -- 90
2021-03-01 18:00:00 2.1 22 Este 48 Este 1.6 849.8 -- 90
2021-03-01 17:00:00 1.8 19 Este 45 Este 0.2 849.4 -- 91
2021-03-01 16:00:00 1 23 Este 42 Este 1.2 849.6 -- 91
2021-03-01 15:00:00 0.9 27 Este 39 Este 1.2 849.5 -- 89
2021-03-01 14:00:00 1.7 15 Sudeste 37 Sudeste 1 849.8 -- 86
2021-03-01 13:00:00 1.4 10 Sudeste 37 Este 1.4 850.1 -- 87
2021-03-01 12:00:00 1.5 8 Sudeste 36 Este 2.6 850.1 -- 88
2021-03-01 11:00:00 1 12 Sur 51 Sudoeste 3.2 849.8 -- 92
2021-03-01 10:00:00 0.5 20 Sudeste 48 Sudeste 3.4 849.4 -- 92
2021-03-01 09:00:00 -0.1 23 Este 42 Este 1.4 848.9 -- 94
2021-03-01 08:00:00 0.2 26 Este 53 Este 0.4 848.5 -- 93
2021-03-01 07:00:00 1.4 15 Sudeste 49 Sudeste 2.6 848.4 -- 85
2021-03-01 06:00:00 1.2 27 Sudeste 57 Este 0.4 848 -- 93
2021-03-01 05:00:00 1.6 16 Este 47 Sudeste 0 847.9 -- 92
2021-03-01 04:00:00 1.6 17 Este 33 Este 0 848.2 -- 84
2021-03-01 03:00:00 1.6 17 Sudeste 44 Sur 0 848.5 -- 77
2021-03-01 02:00:00 1.5 24 Sudeste 39 Este 0 848.2 -- 80
2021-03-01 01:00:00 1.3 5 Nordeste 25 Este 0 848.4 -- 79
2021-03-01 00:00:00 0.7 16 Este 29 Este 0 848.4 -- 83
2021-02-28 23:00:00 1.7 8 Sudeste 19 Sudeste 0 848.5 -- 73
2021-02-28 22:00:00 0.2 2 Este 15 Este 0 848.4 -- 86
2021-02-28 21:00:00 0.4 8 Este 14 Este 0 848.2 -- 84
2021-02-28 20:00:00 -0.2 7 Oeste 13 Oeste 0 848.4 -- 87
2021-02-28 19:00:00 1.8 10 Oeste 16 Oeste 0 848 -- 81
2021-02-28 18:00:00 3.5 15 Oeste 19 Oeste 0 848.1 -- 74
2021-02-28 17:00:00 3.9 16 Oeste 23 Noroeste 0 848.2 -- 70
2021-02-28 16:00:00 4.7 20 Oeste 25 Oeste 0 848.4 -- 67
2021-02-28 15:00:00 5.1 18 Oeste 27 Oeste 0 848.7 -- 58
2021-02-28 14:00:00 4.6 19 Oeste 23 Oeste 0 849.5 -- 54
2021-02-28 13:00:00 4 15 Oeste 21 Oeste 0 850.3 -- 49
2021-02-28 12:00:00 4.5 12 Oeste 17 Oeste 0 850.7 -- 47
2021-02-28 11:00:00 3 10 Oeste 15 Oeste 0 851 -- 49
2021-02-28 10:00:00 2.8 2 Noroeste 9 Noroeste 0 851.1 -- 35
2021-02-28 09:00:00 -1 5 Oeste 7 Oeste 0 851.3 -- 51
2021-02-28 08:00:00 -2.1 5 Oeste 10 Oeste 0 851.5 -- 61
2021-02-28 07:00:00 -1.6 6 Noroeste 13 Noroeste 0 851.8 -- 59
2021-02-28 06:00:00 -0.3 6 Oeste 10 Noroeste 0 852.1 -- 52
2021-02-28 05:00:00 -0.6 4 Oeste 10 Noroeste 0 852.5 -- 56
2021-02-28 04:00:00 -0.8 5 Oeste 10 Oeste 0 853.1 -- 58
2021-02-28 03:00:00 -0.2 5 Oeste 9 Noroeste 0 853.5 -- 56
2021-02-28 02:00:00 0.3 5 Oeste 13 Noroeste 0 854 -- 53
2021-02-28 01:00:00 -1.6 8 Noroeste 14 Noroeste 0 854.2 -- 73
2021-02-28 00:00:00 -0.4 4 Oeste 9 Oeste 0 854.7 -- 65
2021-02-27 23:00:00 -0.8 6 Oeste 14 Noroeste 0 855.4 -- 91
2021-02-27 22:00:00 -0.3 4 Oeste 14 Oeste 0 855.3 -- 94
2021-02-27 21:00:00 1 11 Oeste 21 Oeste 0 855.6 -- 94
2021-02-27 20:00:00 1.7 15 Oeste 21 Oeste 0 855.8 -- 94
2021-02-27 19:00:00 2.7 16 Oeste 21 Oeste 0 856 -- 92
2021-02-27 18:00:00 4.5 14 Oeste 25 Oeste 0 856.1 -- 84
2021-02-27 17:00:00 5.5 21 Oeste 26 Oeste 0 856.4 -- 81
2021-02-27 16:00:00 6 20 Oeste 23 Oeste 0 856.6 -- 78
2021-02-27 15:00:00 5.8 17 Oeste 22 Oeste 0 857.2 -- 76
2021-02-27 14:00:00 4.7 17 Oeste 23 Oeste 0 857.8 -- 79
2021-02-27 13:00:00 3.5 21 Oeste 24 Oeste 0 858.5 -- 86
2021-02-27 12:00:00 5.6 11 Oeste 15 Oeste 0 858.4 -- 69
2021-02-27 11:00:00 2.9 10 Noroeste 15 Noroeste 0 858.6 -- 80
2021-02-27 10:00:00 4.4 2 Oeste 5 Noroeste 0 858.5 -- 62
2021-02-27 09:00:00 1 3 Oeste 8 Noroeste 0 858.5 -- 75
2021-02-27 08:00:00 0.1 3 Oeste 8 Oeste 0 858.3 -- 79
2021-02-27 07:00:00 0.1 5 Oeste 8 Oeste 0 858.2 -- 91
2021-02-27 06:00:00 0.1 5 Oeste 8 Oeste 0 858.4 -- 94
2021-02-27 05:00:00 0.2 5 Oeste 8 Oeste 0 858.6 -- 95
2021-02-27 04:00:00 -0.3 5 Oeste 13 Oeste 0 858.7 -- 95
2021-02-27 03:00:00 0.7 11 Oeste 17 Oeste 0 859.2 -- 95
2021-02-27 02:00:00 1.3 14 Oeste 25 Oeste 0 859.5 -- 94
2021-02-27 01:00:00 0.8 12 Oeste 18 Oeste 0 859.5 -- 94
2021-02-27 00:00:00 0.9 13 Oeste 19 Oeste 0 859.7 -- 94
2021-02-26 23:00:00 1.1 10 Noroeste 16 Noroeste 0 859.8 -- 94
2021-02-26 22:00:00 0.7 3 Oeste 13 Noroeste 0 859.5 -- 93
2021-02-26 21:00:00 1.3 6 Noroeste 10 Noroeste 0 859.3 -- 93
2021-02-26 20:00:00 2.6 8 Noroeste 15 Noroeste 0 859.2 -- 93
2021-02-26 19:00:00 3.8 11 Noroeste 15 Oeste 0 859 -- 91
2021-02-26 18:00:00 4.8 14 Oeste 17 Oeste 0 859 -- 88
2021-02-26 17:00:00 6.6 14 Oeste 17 Oeste 0 858.9 -- 80
2021-02-26 16:00:00 7 13 Oeste 21 Oeste 0 859 -- 75
2021-02-26 15:00:00 5.6 15 Oeste 20 Oeste 0 859.2 -- 83
2021-02-26 14:00:00 6.1 13 Oeste 16 Oeste 0 859.8 -- 79
2021-02-26 13:00:00 4.2 11 Oeste 21 Oeste 0 860.4 -- 88
2021-02-26 12:00:00 2.9 15 Oeste 20 Oeste 0 860.4 -- 91
2021-02-26 11:00:00 4.9 4 Noroeste 10 Noroeste 0 860.2 -- 81
2021-02-26 10:00:00 3.1 4 Noroeste 7 Oeste 0 860 -- 94
2021-02-26 09:00:00 0.3 4 Oeste 17 Oeste 0 859.7 -- 95
2021-02-26 08:00:00 0.6 9 Oeste 17 Oeste 0 859.5 -- 95
2021-02-26 07:00:00 0.9 12 Oeste 19 Oeste 0 859.5 -- 94
2021-02-26 06:00:00 1 13 Oeste 17 Oeste 0 859.6 -- 94
2021-02-26 05:00:00 1.2 9 Oeste 17 Oeste 0 859.5 -- 94
2021-02-26 04:00:00 1.4 13 Oeste 18 Oeste 0 859.8 -- 94
2021-02-26 03:00:00 1.1 13 Oeste 19 Noroeste 0 859.9 -- 94
2021-02-26 02:00:00 1 2 Oeste 10 Oeste 0 860.2 -- 94
2021-02-26 01:00:00 1.1 7 Noroeste 10 Noroeste 0 860.4 -- 94
2021-02-26 00:00:00 1.3 4 Noroeste 13 Sur 0 860.4 -- 94
2021-02-25 23:00:00 2.3 8 Sur 16 Sur 0 860.3 -- 94
2021-02-25 22:00:00 2.1 9 Oeste 15 Oeste 0 860.2 -- 94
2021-02-25 21:00:00 1.7 8 Oeste 14 Oeste 0 859.7 -- 94
2021-02-25 20:00:00 2 12 Noroeste 15 Oeste 0 859.3 -- 94
2021-02-25 19:00:00 2.3 8 Noroeste 14 Oeste 0 858.4 -- 92
2021-02-25 18:00:00 3.9 8 Sur 11 Sur 0 858 -- 86
2021-02-25 17:00:00 3.6 3 Este 7 Este 0 857.8 -- 87
2021-02-25 16:00:00 3.5 7 Este 14 Este 0 857.5 -- 89
2021-02-25 15:00:00 3.2 10 Este 17 Este 0 857.4 -- 90
2021-02-25 14:00:00 3.1 10 Este 23 Este 0 857.4 -- 89
2021-02-25 13:00:00 3.3 10 Este 24 Sudeste 0 857.7 -- 88
2021-02-25 12:00:00 3.3 13 Este 22 Sudeste 0 857.3 -- 89
2021-02-25 11:00:00 3.2 14 Este 23 Sudeste 0 857.1 -- 89
2021-02-25 10:00:00 2.8 15 Este 19 Este 0 856.9 -- 90
2021-02-25 09:00:00 3.4 9 Sudeste 23 Sudeste 0 856.5 -- 86
2021-02-25 08:00:00 4.1 11 Sudeste 28 Sur 0 855.8 -- 81
2021-02-25 07:00:00 3.9 8 Sudeste 28 Sur 0 855.4 -- 84
2021-02-25 06:00:00 3.8 11 Este 21 Este 0 854.9 -- 86
2021-02-25 05:00:00 4.1 7 Este 30 Este 0.2 855.1 -- 85
2021-02-25 04:00:00 4.6 11 Sur 38 Sur 0.2 855.3 -- 80
2021-02-25 03:00:00 5.3 19 Sur 48 Sur 0 855.6 -- 74
2021-02-25 02:00:00 5.5 17 Sur 38 Sur 0 856.1 -- 73
2021-02-25 01:00:00 5.5 18 Sur 40 Sudeste 0 856.6 -- 71
2021-02-25 00:00:00 5.9 19 Sur 39 Sudoeste 0 856.5 -- 69
2021-02-24 23:00:00 6.2 15 Sur 45 Sur 0 856.6 -- 66
2021-02-24 22:00:00 6.1 14 Sur 47 Sudoeste 0 856.6 -- 68
2021-02-24 21:00:00 6.2 19 Sur 54 Sudoeste 0 856.4 -- 67
2021-02-24 20:00:00 6.1 19 Sur 53 Sur 0 856.4 -- 65
2021-02-24 19:00:00 6.4 22 Sur 50 Sur 0 856.3 -- 64
2021-02-24 18:00:00 7 12 Sur 45 Sur 0 855.8 -- 60
2021-02-24 17:00:00 7.7 23 Sur 60 Sur 0 855.8 -- 53
2021-02-24 16:00:00 8.3 28 Sur 63 Sudeste 0 856.1 -- 43
2021-02-24 15:00:00 8.1 26 Sur 60 Sur 0 856.3 -- 47
2021-02-24 14:00:00 7.2 18 Sur 43 Sudeste 0 856.6 -- 50
2021-02-24 13:00:00 6.1 16 Sudeste 49 Sur 0 857.4 -- 55
2021-02-24 12:00:00 6.2 27 Sur 62 Sudeste 0 858.1 -- 48
2021-02-24 11:00:00 5.4 25 Sur 59 Sur 0 858.2 -- 51
2021-02-24 10:00:00 4.6 28 Sur 72 Sur 0 858.2 -- 54
2021-02-24 09:00:00 3.7 32 Sur 70 Sur 0 857.8 -- 60
2021-02-24 08:00:00 3.5 26 Sur 61 Sudeste 0 857.6 -- 59
2021-02-24 07:00:00 3.6 27 Sudeste 61 Sudeste 0 857.8 -0.5 58
2021-02-24 06:00:00 4.1 30 Sur 62 Sudeste 0 858 -1.2 55
2021-02-24 05:00:00 4.3 33 Sur 69 Sur 0 858.1 -- 52
2021-02-24 04:00:00 4 26 Sudeste 55 Sudeste 0 858.3 -- 51
2021-02-24 03:00:00 2.5 14 Este 37 Sudeste 0 859.2 -- 69
2021-02-24 02:00:00 2.3 10 Este 31 Este 0 859.4 -1 71
2021-02-24 01:00:00 3 17 Este 44 Sudoeste 0 859.8 -- 62
2021-02-24 00:00:00 2.8 12 Este 29 Nordeste 0 860.1 -- 56
2021-02-23 23:00:00 2.6 15 Este 36 Sudeste 0 860.4 -- 55
2021-02-23 22:00:00 3 13 Este 36 Este 0 860.4 -- 53
2021-02-23 21:00:00 3.3 11 Sudeste 42 Sudeste 0 860.3 0.9 51
2021-02-23 20:00:00 3.1 14 Este 29 Nordeste 0 860.1 -- 54
2021-02-23 19:00:00 4.2 13 Este 44 Sudeste 0 859.7 -- 47
2021-02-23 18:00:00 5.6 10 Este 31 Sudeste 0 859.4 -- 47
2021-02-23 17:00:00 6.5 10 Sudeste 40 Sudeste 0 859 -- 45
2021-02-23 16:00:00 6.4 13 Sudeste 37 Sur 0 859 -- 44
2021-02-23 15:00:00 5.7 18 Sudeste 46 Sudeste 0 859 -- 53
2021-02-23 14:00:00 5.1 19 Sudeste 44 Sudeste 0 858.9 -- 55
2021-02-23 13:00:00 4.5 15 Sudeste 37 Sudeste 0 859.4 -- 57
2021-02-23 12:00:00 3.7 17 Este 39 Sudeste 0 859 -- 60
2021-02-23 11:00:00 2.9 21 Sudeste 46 Sudeste 0 858.7 -- 61
2021-02-23 10:00:00 1.9 17 Este 47 Este 0 858.1 -- 62
2021-02-23 09:00:00 0.4 24 Este 44 Este 0 857.3 -- 63
2021-02-23 08:00:00 -0.3 20 Este 46 Sudeste 0 856.5 -- 63
2021-02-23 07:00:00 -0.8 27 Este 58 Sudeste 0 855.8 -- 66
2021-02-23 06:00:00 0.1 13 Este 50 Este 0 855.5 -- 56
2021-02-23 05:00:00 -0.2 26 Este 61 Este 0 855 -- 62
2021-02-23 04:00:00 -0.6 32 Este 51 Este 0 854.9 -- 66
2021-02-23 03:00:00 -1 27 Este 46 Este 0 854.9 -- 71
2021-02-23 02:00:00 -0.6 20 Este 43 Este 0 855.4 -- 71
2021-02-23 01:00:00 -0.6 23 Este 37 Este 0 854.6 -- 70
2021-02-23 00:00:00 -1.7 13 Este 30 Sudeste 0 854.6 -- 68
2021-02-22 23:00:00 -1.4 12 Este 23 Este 0 854.2 -- 64
2021-02-22 22:00:00 -0.7 14 Este 26 Sudeste 0 853.4 -- 64
2021-02-22 21:00:00 -1.6 6 Este 14 Este 0 852.9 -- 70
2021-02-22 20:00:00 -2 4 Sudeste 10 Sur 0 852.4 -- 64
2021-02-22 19:00:00 -1.5 0 Calma 7 Sur 0 851.8 -- 55
2021-02-22 18:00:00 2.3 2 Oeste 18 Sudoeste 0 851 -- 46
2021-02-22 17:00:00 3.3 6 Sudoeste 17 Sudoeste 0 851 -- 54
2021-02-22 16:00:00 3.7 3 Sudeste 9 Oeste 0.2 850 -- 65
2021-02-22 15:00:00 3.8 4 Este 8 Sudeste 0.2 849.6 -- 69
2021-02-22 14:00:00 3.3 4 Este 11 Este 0.4 849.3 -- 78
2021-02-22 13:00:00 1.3 8 Este 12 Este 0.2 849.3 -- 91
2021-02-22 12:00:00 0.9 2 Oeste 13 Noroeste 0.2 848.7 -- 89
2021-02-22 11:00:00 -1.2 9 Oeste 18 Noroeste 0 848.2 -- 91
2021-02-22 10:00:00 -1.8 13 Oeste 27 Noroeste 0 847.7 -- 92
2021-02-22 09:00:00 -2.5 16 Oeste 33 Oeste 0 846.7 -- 93
2021-02-22 08:00:00 -2.3 24 Oeste 34 Oeste 0 845.9 -- 93
2021-02-22 07:00:00 -2.1 22 Noroeste 34 Noroeste 0 845.2 1.7 93
2021-02-22 06:00:00 -2 24 Noroeste 40 Oeste 0 844.4 -- 93
2021-02-22 05:00:00 -2 22 Oeste 40 Oeste 0 844 -- 93
2021-02-22 04:00:00 -1.6 24 Oeste 41 Oeste 0 843.5 -- 94
2021-02-22 03:00:00 -1.4 31 Oeste 46 Oeste 0 843.2 -- 94
2021-02-22 02:00:00 -1.4 19 Noroeste 44 Oeste 0 842.8 -- 94
2021-02-22 01:00:00 -1.6 18 Noroeste 30 Noroeste 0.2 842.5 -- 94
2021-02-22 00:00:00 -1.5 18 Noroeste 42 Oeste 0 842.1 -- 94
2021-02-21 23:00:00 -1.5 28 Oeste 44 Oeste 0 841.6 -- 94
2021-02-21 22:00:00 -1.7 27 Oeste 41 Oeste 0 841 1.8 94
2021-02-21 21:00:00 -1.8 26 Oeste 36 Oeste 0.2 840.5 -- 93
2021-02-21 20:00:00 -1.6 17 Oeste 37 Oeste 0.4 840.2 -- 93
2021-02-21 19:00:00 -1.5 25 Oeste 36 Oeste 0 839.2 -- 93
2021-02-21 18:00:00 -1 22 Oeste 31 Oeste 0.2 838.5 -- 93
2021-02-21 17:00:00 -1 24 Oeste 30 Oeste 0.4 837.9 -- 93
2021-02-21 16:00:00 0.9 8 Oeste 15 Este 3.4 837.4 -- 89
2021-02-21 15:00:00 2 10 Este 31 Este 3.4 836.9 -- 89
2021-02-21 14:00:00 2 19 Este 42 Este 4.2 837.1 -- 88
2021-02-21 13:00:00 2.7 23 Este 48 Este 3.2 837.3 -- 85
2021-02-21 12:00:00 3.1 19 Este 45 Este 2.6 837.2 -- 84
2021-02-21 11:00:00 3 22 Sudeste 75 Este 2.4 837.2 -- 82
2021-02-21 10:00:00 3.1 30 Este 82 Sudeste 2.6 837.1 -- 81
2021-02-21 09:00:00 3.5 28 Este 69 Sudeste 1 836.6 -- 71
2021-02-21 08:00:00 4.9 19 Este 72 Este 0 836.8 -- 59
2021-02-21 07:00:00 5 26 Este 64 Sudeste 0 836.9 -- 58
2021-02-21 06:00:00 5.4 28 Sudeste 67 Este 0 836.5 -- 53
2021-02-21 05:00:00 5.2 24 Este 80 Sudeste 0 836.5 -- 48
2021-02-21 04:00:00 5.2 30 Sudeste 73 Este 0 837.4 -- 47
2021-02-21 03:00:00 4.8 33 Este 67 Sur 0 837.7 -- 49
2021-02-21 02:00:00 5.3 27 Sur 63 Sur 0 839 -- 51
2021-02-21 01:00:00 5 13 Sudeste 59 Sudeste 0 839.6 -- 54
2021-02-21 00:00:00 4.7 12 Sudeste 78 Sur 0 839.1 -- 62
2021-02-20 23:00:00 4.4 14 Sur 65 Sudoeste 0 839 -- 71
2021-02-20 22:00:00 3.7 24 Sur 89 Sur 0.6 839.2 -- 86
2021-02-20 21:00:00 3.1 30 Sur 82 Sudeste 5 839.5 -- 90
2021-02-20 20:00:00 3.5 29 Sur 87 Sur 4 839.7 -- 81
2021-02-20 19:00:00 3.1 24 Sur 89 Sudeste 4.4 839.2 -- 86
2021-02-20 18:00:00 2.6 26 Sur 65 Sur 4.6 839.2 -- 82
2021-02-20 17:00:00 3.5 20 Sur 70 Oeste 2.4 838.9 -- 79
2021-02-20 16:00:00 3.6 22 Sudeste 78 Sur 1.4 838.5 -- 80
2021-02-20 15:00:00 3.6 10 Sudeste 67 Sudeste 0 838.5 -- 78
2021-02-20 14:00:00 4.3 28 Sur 81 Sudeste 0 839.6 -- 72
2021-02-20 13:00:00 4.5 32 Sur 92 Sudoeste 0 839.7 -- 64
2021-02-20 12:00:00 5.1 32 Sur 92 Sur 0 839.6 -- 55
2021-02-20 11:00:00 5.2 43 Sur 92 Sur 0 839.3 -- 49
2021-02-20 10:00:00 4.6 43 Sur 106 Sur 0 839.2 -- 56
2021-02-20 09:00:00 4.3 39 Sur 100 Sur 0 838.6 -0.2 61
2021-02-20 08:00:00 4.1 42 Sur 102 Sur 0 838.5 -- 63
2021-02-20 07:00:00 4.3 34 Sur 88 Sur 0 838.4 -- 59
2021-02-20 06:00:00 4.3 35 Sur 79 Sur 0 838.8 -- 64
2021-02-20 05:00:00 4.2 32 Sur 87 Sudeste 0 839.3 -- 67
2021-02-20 04:00:00 4.4 35 Sur 80 Sur 0 840.5 -1.1 74
2021-02-20 03:00:00 4.4 37 Sur 90 Sur 0 840.4 -- 78
2021-02-20 02:00:00 4.4 37 Sur 80 Sur 0 840.9 -- 80
2021-02-20 01:00:00 4.7 32 Sur 89 Sudoeste 0 841.6 -- 77
2021-02-20 00:00:00 4.6 27 Sur 80 Sur 0 842.5 -- 76
2021-02-19 23:00:00 4.6 28 Sur 75 Sur 0 842.6 -1.3 74
2021-02-19 22:00:00 4.2 25 Sur 65 Sudeste 0 843.1 -- 78
2021-02-19 21:00:00 4.3 18 Sur 64 Sur 0 844.1 -- 74
2021-02-19 20:00:00 4.3 20 Sur 63 Sur 0 843.9 -- 74
2021-02-19 19:00:00 4.2 15 Sur 44 Sudeste 0 844.2 -- 72
2021-02-19 18:00:00 4.8 7 Sur 57 Sudoeste 0 844.8 -- 69
2021-02-19 17:00:00 5.2 23 Sur 69 Sudoeste 0 845 -0.6 63
2021-02-19 16:00:00 5.3 21 Sur 75 Sudoeste 0 844.9 -- 64
2021-02-19 15:00:00 5.3 22 Sur 65 Sudoeste 0 845 -- 67
2021-02-19 14:00:00 4.9 27 Sur 60 Sur 0 845.6 -- 76
2021-02-19 13:00:00 4.7 28 Sur 66 Sur 0 845.9 -- 77
2021-02-19 12:00:00 4.8 33 Sur 68 Sur 0 846 -- 72
2021-02-19 11:00:00 4.5 29 Sur 77 Sudoeste 0 846.1 -- 74
2021-02-19 10:00:00 4.1 23 Sur 60 Sudoeste -- 845.9 -- 78
2021-02-19 09:00:00 3.7 26 Sur 66 Sur -- 846.2 -- 79
2021-02-19 08:00:00 3.5 22 Sur 54 Sur -- 845.8 -- 78
2021-02-19 07:00:00 3.4 22 Sur 52 Sur -- 846 -- 77
2021-02-19 06:00:00 3.3 25 Sur 61 Sur -- 845.6 -- 78
2021-02-19 05:00:00 3.5 28 Sur 58 Sur -- 845.2 -- 72
2021-02-19 04:00:00 3.3 19 Sur 53 Sur -- 846 -- 72
2021-02-19 03:00:00 3.4 23 Sur 58 Sudoeste -- 846 -- 72
2021-02-19 02:00:00 3.4 26 Sudeste 53 Sur -- 846.4 -- 74
2021-02-19 01:00:00 3.5 25 Sudeste 55 Sudeste -- 846.4 -- 74
2021-02-19 00:00:00 3.5 23 Sur 54 Sur -- 846.6 -- 71
2021-02-18 23:00:00 3.6 13 Sur 55 Sur -- 846.7 -- 73
2021-02-18 22:00:00 3.8 19 Sur 41 Sur -- 846.5 -- 75
2021-02-18 21:00:00 3.9 12 Sudoeste 37 Oeste -- 846.5 -- 73
2021-02-18 20:00:00 3.3 14 Oeste 41 Oeste -- 846.5 -- 77
2021-02-18 19:00:00 4.2 22 Oeste 41 Noroeste -- 846 -- 69
2021-02-18 18:00:00 4.5 15 Oeste 63 Sur -- 845.7 -- 68
2021-02-18 17:00:00 4.6 13 Oeste 33 Sudoeste -- 845.5 -- 69
2021-02-18 16:00:00 4.4 6 Sudoeste 25 Sudeste -- 845.5 -- 77
2021-02-18 15:00:00 4.4 6 Oeste 21 Oeste -- 845.5 -- 81
2021-02-18 14:00:00 4.4 11 Oeste 38 Oeste -- 845.1 -- 75
2021-02-18 13:00:00 4.3 11 Oeste 23 Oeste -- 845.4 -- 77
2021-02-18 12:00:00 3.8 5 Sur 37 Noroeste -- 844.9 -- 78
2021-02-18 11:00:00 4.2 15 Sudoeste 40 Oeste -- 844.4 -- 74
2021-02-18 10:00:00 3.7 19 Sur 42 Sur -- 844.1 -- 77
2021-02-18 09:00:00 3.9 18 Sur 60 Sur -- 843.5 -- 78
2021-02-18 08:00:00 4.1 26 Sur 71 Sur -- 842.9 -- 80
2021-02-18 07:00:00 4.1 26 Sur 61 Sur -- 843 -- 79
2021-02-18 06:00:00 4.4 18 Sur 59 Sudeste -- 843.5 -- 73
2021-02-18 05:00:00 4.6 25 Sur 61 Sur -- 843.4 -- 76
2021-02-18 04:00:00 5.2 31 Sur 84 Sur -- 843.7 -- 71
2021-02-18 03:00:00 5.4 22 Sudoeste 67 Sur -- 844.1 -- 75
2021-02-18 02:00:00 5.6 22 Sur 54 Sur -- 844.2 -- 74
2021-02-18 01:00:00 5.7 18 Sudoeste 53 Sudoeste -- 844.8 -- 73
2021-02-18 00:00:00 5.7 13 Sur 57 Sur -- 845.5 -- 74
2021-02-17 23:00:00 5.6 19 Sur 61 Sur -- 845.8 -- 79
2021-02-17 22:00:00 5.7 24 Sur 50 Sur -- 846 -- 79
2021-02-17 21:00:00 5.2 21 Sur 47 Sur -- 846.7 -- 80
2021-02-17 20:00:00 5.1 21 Sur 52 Sur -- 847.4 -- 83
2021-02-17 19:00:00 5.2 20 Sur 57 Sur -- 847.2 -- 80
2021-02-17 18:00:00 4.9 13 Sur 35 Sudeste -- 847.8 -- 77
2021-02-17 17:00:00 5.3 17 Sudeste 35 Sudeste -- 848.4 -- 70
2021-02-17 16:00:00 5.4 13 Sur 41 Sur -- 849 -- 65
2021-02-17 15:00:00 5 19 Sur 36 Sur -- 849.7 -- 64
2021-02-17 14:00:00 4.7 20 Sur 45 Sur -- 850.5 -- 65
2021-02-17 13:00:00 4.2 14 Sur 46 Sur -- 851 -- 69
2021-02-17 12:00:00 3.5 17 Sudoeste 48 Sur -- 851.4 -- 70
2021-02-17 11:00:00 3.3 27 Sur 54 Sur -- 851.3 -- 70
2021-02-17 10:00:00 2.8 23 Sudoeste 47 Sur -- 851.4 -- 75
2021-02-17 09:00:00 0.3 19 Este 36 Este -- 851.4 -- 92
2021-02-17 08:00:00 -0.2 22 Este 33 Nordeste -- 851.4 -- 88
2021-02-17 07:00:00 -0.7 5 Este 31 Sur -- 851.6 -- 89
2021-02-17 06:00:00 1.1 12 Sudeste 26 Este -- 851.9 -- 73
2021-02-17 05:00:00 1.1 11 Este 27 Nordeste -- 851.9 -- 69
2021-02-17 04:00:00 1.3 17 Este 30 Sudeste -- 852.4 -- 78
2021-02-17 03:00:00 1.5 7 Sudoeste 20 Sur -- 852.8 -- 68
2021-02-17 02:00:00 2.1 9 Este 27 Noroeste -- 853.2 -- 70
2021-02-17 01:00:00 2.8 9 Sudoeste 38 Sudoeste -- 853.5 -- 59
2021-02-17 00:00:00 3.1 24 Sudoeste 40 Sur -- 853.8 -- 58
2021-02-16 23:00:00 3.3 18 Sudoeste 49 Sudoeste -- 853.7 -- 58
2021-02-16 22:00:00 3.7 34 Sudoeste 50 Sur -- 853.6 -- 56
2021-02-16 21:00:00 3.6 20 Sudoeste 47 Sudoeste -- 853.6 -- 57
2021-02-16 20:00:00 3.4 12 Sudoeste 20 Sudoeste -- 853.6 -- 62
2021-02-16 19:00:00 4 9 Sudeste 27 Sudoeste -- 853.1 -- 64
2021-02-16 18:00:00 5.1 12 Oeste 43 Oeste -- 853 -- 66
2021-02-16 17:00:00 4.5 18 Oeste 26 Oeste -- 853.1 -- 73
2021-02-16 16:00:00 4.5 13 Oeste 21 Sudoeste -- 853.2 -- 74
2021-02-16 15:00:00 4 3 Sudeste 17 Sudeste -- 853.3 -- 87
2021-02-16 14:00:00 3.8 9 Norte 19 Sur -- 853 -- 87
2021-02-16 13:00:00 4.2 13 Sur 27 Sur -- 853 -- 77
2021-02-16 12:00:00 3.9 12 Sur 31 Sudeste -- 852.9 -- 76
2021-02-16 11:00:00 4 14 Sur 42 Sur -- 852.5 -- 72
2021-02-16 10:00:00 4.7 11 Sudoeste 45 Sur -- 852.5 -- 66
2021-02-16 09:00:00 4.3 21 Sur 73 Sur -- 851.7 -- 69
2021-02-16 08:00:00 4.8 30 Sur 67 Sur -- 851.1 -- 63
2021-02-16 07:00:00 5.1 27 Sur 83 Sur -- 851.4 -- 66
2021-02-16 06:00:00 5.3 27 Sur 68 Sur -- 851.3 -- 67
2021-02-16 05:00:00 5.6 24 Sur 68 Sur -- 852.2 -- 66
2021-02-16 04:00:00 5.7 23 Sur 57 Sur -- 853.3 -- 67
2021-02-16 03:00:00 5.5 15 Sur 41 Sudoeste -- 853.8 -- 68
2021-02-16 02:00:00 5.5 19 Sudeste 57 Sur -- 854.3 -- 71
2021-02-16 01:00:00 6.1 19 Sur 49 Sur -- 855 -- 69
2021-02-16 00:00:00 6.4 16 Sur 53 Sur -- 855.3 -- 71
2021-02-15 23:00:00 6.6 22 Sur 64 Sur -- 855.3 -- 70
2021-02-15 22:00:00 6.6 21 Sur 55 Sur -- 855.7 -- 69
2021-02-15 21:00:00 6.5 17 Sur 53 Sur -- 855.8 -- 67
2021-02-15 20:00:00 6.9 24 Sur 63 Sur -- 855.8 -- 55
2021-02-15 19:00:00 7.3 17 Sur 47 Sur -- 855.9 -- 50
2021-02-15 18:00:00 7.7 20 Sur 45 Sur -- 856 -- 47
2021-02-15 17:00:00 8.6 14 Sudeste 36 Sur -- 856.4 -- 40
2021-02-15 16:00:00 8.8 13 Sudeste 44 Sur -- 856.9 -- 46
2021-02-15 15:00:00 8.5 15 Sur 41 Sudeste -- 857.3 -- 48
2021-02-15 14:00:00 7.8 18 Sur 46 Sur -- 858.1 -- 49
2021-02-15 13:00:00 7.2 27 Sudoeste 53 Sur -- 858.4 -- 49
2021-02-15 12:00:00 6.9 33 Sudoeste 50 Sur -- 858.6 -- 42
2021-02-15 11:00:00 5.7 32 Sudoeste 51 Sur -- 858.7 -- 52
2021-02-15 10:00:00 6.4 29 Sudoeste 47 Sur -- 858.4 -- 40
2021-02-15 09:00:00 6.3 27 Sudoeste 45 Sur -- 857.8 -- 34
2021-02-15 08:00:00 4.2 13 Sudeste 33 Sur -- 857.5 -- 65
2021-02-15 07:00:00 4.3 17 Sur 33 Sur -- 857.6 -- 71
2021-02-15 06:00:00 3.9 25 Sur 33 Sur -- 857.8 -- 76
2021-02-15 05:00:00 4.7 20 Sur 35 Sur -- 857.7 -- 65
2021-02-15 04:00:00 5 19 Sur 32 Sudeste -- 857.8 -- 71
2021-02-15 03:00:00 5.7 15 Sur 36 Sur -- 857.8 -- 69
2021-02-15 02:00:00 5.8 17 Sur 33 Sudoeste -- 858 -- 69
2021-02-15 01:00:00 5.6 18 Sudeste 42 Sur -- 857.9 -- 77
2021-02-15 00:00:00 6.1 18 Sur 46 Sur -- 858 -- 73
2021-02-14 23:00:00 6 20 Sur 44 Sur -- 858 -- 73
2021-02-14 22:00:00 5.9 18 Sur 49 Sur -- 857.8 -- 74
2021-02-14 21:00:00 5.6 23 Sur 48 Sur -- 857.4 -- 77
2021-02-14 20:00:00 5.2 23 Sur 46 Sur -- 857.4 -- 74
2021-02-14 19:00:00 4.3 27 Este 41 Este -- 857 0.5 85
2021-02-14 18:00:00 4.9 18 Este 36 Este -- 856.9 0 80
2021-02-14 17:00:00 5 21 Este 41 Sudeste -- 857 -- 84
2021-02-14 16:00:00 5.4 28 Este 36 Este -- 856.5 -- 83
2021-02-14 15:00:00 5.3 26 Este 33 Sudeste -- 856.9 -- 81
2021-02-14 14:00:00 6.6 16 Sur 37 Este -- 857.3 -- 70
2021-02-14 13:00:00 5.8 23 Sudeste 37 Este -- 857.3 -- 76
2021-02-14 12:00:00 5.1 21 Este 32 Este -- 857.4 -- 83
2021-02-14 11:00:00 4.2 19 Este 36 Este -- 857.1 -- 87
2021-02-14 10:00:00 3.2 25 Este 39 Este -- 856.5 -- 90
2021-02-14 09:00:00 3.2 23 Este 45 Este -- 856.4 -- 89
2021-02-14 08:00:00 3.3 28 Este 48 Este -- 856.1 -- 89
2021-02-14 07:00:00 3 30 Este 44 Este -- 855.6 -- 88
2021-02-14 06:00:00 3 21 Este 30 Sudeste -- 856.1 -- 88
2021-02-14 05:00:00 2 7 Oeste 20 Sur -- 856.4 -- 86
2021-02-14 04:00:00 1.7 5 Nordeste 26 Sudeste -- 856.7 -- 88
2021-02-14 03:00:00 3.1 12 Este 27 Sur -- 856.5 -- 84
2021-02-14 02:00:00 1.7 3 Nordeste 12 Nordeste -- 856.8 -- 92
2021-02-14 01:00:00 1.9 4 Sudeste 8 Sur -- 856.9 -- 93
2021-02-14 00:00:00 0.9 3 Sudeste 9 Sur -- 857.2 -- 92
2021-02-13 23:00:00 2.5 3 Sudeste 12 Sudeste -- 857.2 -- 91
2021-02-13 22:00:00 2.5 3 Sudeste 8 Este -- 857.3 -- 89
2021-02-13 21:00:00 3.1 5 Este 13 Este -- 857.3 -- 85
2021-02-13 20:00:00 3.5 6 Sudeste 10 Este -- 857.2 -- 84
2021-02-13 19:00:00 3.8 4 Sur 9 Sur -- 856.5 -- 86
2021-02-13 18:00:00 5.1 2 Noroeste 10 Sudeste -- 856.6 -- 79
2021-02-13 17:00:00 6.2 6 Sudeste 20 Oeste -- 856.1 -- 77
2021-02-13 16:00:00 7.7 11 Oeste 27 Oeste -- 855.7 -- 64
2021-02-13 15:00:00 7.4 9 Oeste 24 Oeste -- 855.3 -- 66
2021-02-13 14:00:00 5.8 17 Oeste 27 Oeste -- 855.4 -- 76
2021-02-13 13:00:00 4.7 21 Oeste 41 Noroeste -- 855.5 -- 80
2021-02-13 08:00:00 0.6 5 Sudeste 13 Sudeste -- 854.1 0.2 82
2021-02-13 07:00:00 0.3 4 Sudeste 10 Sudeste -- 853.9 0 84
2021-02-13 06:00:00 -0.2 5 Este 13 Sudeste -- 853.7 -0.3 80
2021-02-13 05:00:00 0.3 3 Sudeste 8 Nordeste -- 853.9 -0.2 84
2021-02-13 04:00:00 0.4 6 Sudeste 12 Sudeste -- 853.9 -0.3 83
2021-02-13 03:00:00 -0.8 3 Sur 8 Sudeste -- 854 -0.2 87
2021-02-13 02:00:00 -0.9 3 Este 6 Sudeste -- 854.1 -0.1 83
2021-02-13 01:00:00 -1.1 3 Oeste 5 Sudeste -- 854.2 -0.2 85
2021-02-13 00:00:00 -0.7 2 Sudeste 6 Oeste -- 854.2 0.3 86
2021-02-12 23:00:00 -0.6 3 Oeste 5 Oeste -- 854.2 0.5 87
2021-02-12 22:00:00 -0.3 3 Sudoeste 7 Oeste -- 854.4 1.1 84
2021-02-12 21:00:00 0.4 3 Oeste 7 Oeste -- 853.9 1 88
2021-02-12 20:00:00 0.9 2 Oeste 10 Oeste -- 853.7 1 84
2021-02-12 19:00:00 1.8 3 Noroeste 20 Oeste -- 853.3 1.1 83
2021-02-12 18:00:00 3.1 11 Oeste 21 Oeste -- 852.9 1 76
2021-02-12 17:00:00 3.4 15 Oeste 35 Noroeste -- 852.7 1.3 81
2021-02-12 16:00:00 3.3 20 Oeste 39 Oeste -- 852.2 1.3 84
2021-02-12 15:00:00 3.2 24 Oeste 60 Oeste -- 851.9 1.6 81
2021-02-12 14:00:00 2.7 31 Oeste 71 Oeste -- 851.4 1.8 88
2021-02-12 13:00:00 2.7 40 Oeste 64 Oeste -- 850.9 2.1 88
2021-02-12 12:00:00 2.3 40 Oeste 64 Oeste -- 850.3 2 92
2021-02-12 11:00:00 2.1 34 Oeste 49 Oeste -- 849.6 2.2 92
2021-02-12 10:00:00 1.9 28 Oeste 45 Oeste -- 848.8 1.9 93
2021-02-12 09:00:00 1.2 25 Oeste 44 Oeste -- 848.3 -- 91
2021-02-12 08:00:00 2 27 Oeste 40 Oeste -- 847.4 -- 91
2021-02-12 07:00:00 1.5 23 Oeste 60 Oeste -- 846.9 -- 91
2021-02-12 06:00:00 2.8 4 Este 7 Sudeste -- 846.1 -- 93
2021-02-12 05:00:00 2.5 4 Oeste 8 Oeste -- 845.9 -- 93
2021-02-12 04:00:00 3.2 3 Oeste 9 Oeste -- 845.8 -- 92
2021-02-12 03:00:00 3.6 6 Oeste 21 Oeste -- 845.7 -- 91
2021-02-12 02:00:00 3.8 10 Oeste 15 Oeste -- 845.7 -- 89
2021-02-12 01:00:00 6.3 19 Oeste 41 Oeste -- 845.5 -- 78
2021-02-12 00:00:00 6.2 7 Sudoeste 31 Oeste -- 845.8 -- 80
2021-02-11 23:00:00 6.5 8 Oeste 35 Oeste -- 846.6 -- 77
2021-02-11 22:00:00 6.5 13 Sur 42 Sur -- 846.7 -- 83
2021-02-11 21:00:00 5.7 9 Sur 19 Sudeste -- 846.9 -- 88
2021-02-11 20:00:00 5.7 10 Sudeste 23 Sudeste -- 847.3 -- 88
2021-02-11 19:00:00 5.3 6 Sudeste 31 Sudoeste -- 847.4 -- 82
2021-02-11 18:00:00 4.8 12 Sur 21 Sudoeste -- 847.7 -- 86
2021-02-11 17:00:00 4.6 11 Sur 36 Sur -- 848 -- 85
2021-02-11 16:00:00 4.9 19 Sur 29 Sur -- 848 -- 82
2021-02-11 15:00:00 5.4 9 Oeste 31 Nordeste -- 848 -- 77
2021-02-11 14:00:00 6.9 14 Sudoeste 32 Sudoeste -- 848.4 -- 74
2021-02-11 13:00:00 6.3 23 Sudoeste 35 Sudoeste -- 848.5 -- 78
2021-02-11 12:00:00 4.9 9 Sudoeste 29 Nordeste -- 848.7 -- 91
2021-02-11 11:00:00 1.7 12 Nordeste 19 Este -- 848.7 -- 94
2021-02-11 10:00:00 1.7 9 Nordeste 16 Sudeste -- 848.7 -- 94
2021-02-11 09:00:00 1.5 10 Este 19 Este -- 848 -- 94
2021-02-11 08:00:00 1.4 12 Este 24 Este -- 847.3 -- 93
2021-02-11 07:00:00 1 13 Este 21 Nordeste -- 847.2 -- 91
2021-02-11 06:00:00 0.7 9 Este 21 Este -- 847.1 -- 89
2021-02-11 05:00:00 0.8 16 Este 23 Este -- 847.1 -- 87
2021-02-11 04:00:00 1 15 Este 26 Este -- 847.3 -- 83
2021-02-11 03:00:00 1.2 14 Este 23 Este -- 847.2 -- 81
2021-02-11 02:00:00 1.7 12 Este 22 Nordeste -- 847.1 -- 75
2021-02-11 01:00:00 1.3 9 Este 21 Este -- 847 -- 85
2021-02-11 00:00:00 1.5 8 Este 20 Nordeste -- 846.4 -- 86
2021-02-10 23:00:00 1.3 8 Este 19 Nordeste -- 846.5 -- 89
2021-02-10 22:00:00 1.3 9 Nordeste 16 Nordeste -- 846.1 -- 89
2021-02-10 21:00:00 1.2 4 Sudeste 10 Este -- 845.8 -- 86
2021-02-10 20:00:00 1.4 3 Nordeste 8 Sudeste -- 845.4 -- 81
2021-02-10 19:00:00 1.6 2 Nordeste 6 Norte -- 844.9 -- 77
2021-02-10 18:00:00 3.9 0 Calma 9 Norte -- 844.4 -- 69
2021-02-10 17:00:00 4.4 5 Este 11 Sudeste -- 844 -- 60
2021-02-10 16:00:00 4.7 7 Oeste 15 Oeste -- 843.4 -- 57
2021-02-10 15:00:00 5.1 6 Sudoeste 23 Oeste -- 843 -- 55
2021-02-10 14:00:00 2.9 15 Oeste 37 Oeste -- 842.4 -- 66
2021-02-10 13:00:00 1.7 30 Oeste 54 Oeste -- 841.7 -- 71
2021-02-10 12:00:00 0.7 39 Oeste 59 Oeste -- 840.2 -- 75
2021-02-10 11:00:00 0.1 46 Noroeste 61 Noroeste -- 839.3 -- 76
2021-02-10 10:00:00 -0.3 35 Oeste 50 Oeste -- 838.5 -- 79
2021-02-10 09:00:00 -1.1 31 Oeste 45 Oeste -- 837.3 -- 83
2021-02-10 08:00:00 -1.4 22 Oeste 45 Noroeste -- 835.9 -- 84
2021-02-10 07:00:00 -1.6 30 Oeste 58 Oeste -- 835 -- 88
2021-02-10 06:00:00 -0.9 34 Noroeste 51 Noroeste -- 833.6 -- 86
2021-02-10 05:00:00 -1 21 Oeste 33 Oeste -- 832.3 -- 89
2021-02-10 04:00:00 -1.4 20 Oeste 33 Oeste -- 831.7 -- 90
2021-02-10 03:00:00 -1.5 8 Nordeste 22 Este -- 831.5 -- 92
2021-02-10 02:00:00 -0.7 7 Sur 28 Sur -- 830.9 -- 84
2021-02-10 01:00:00 -0.5 11 Sur 19 Sur -- 831.1 -- 81
2021-02-10 00:00:00 -1.5 12 Este 26 Este -- 831.2 -- 90
2021-02-09 23:00:00 -1.3 6 Nordeste 26 Nordeste -- 831.2 -- 83
2021-02-09 22:00:00 -0.5 9 Nordeste 21 Oeste -- 830.7 -- 83
2021-02-09 21:00:00 -0.1 10 Sudoeste 29 Oeste -- 830.7 -- 78
2021-02-09 20:00:00 0 14 Sudoeste 26 Oeste -- 830.4 -- 76
2021-02-09 19:00:00 0.5 5 Oeste 39 Sur -- 830.3 -- 72
2021-02-09 18:00:00 0.6 13 Sudoeste 36 Oeste -- 830.2 -- 69
2021-02-09 17:00:00 0.7 11 Sur 34 Sudoeste -- 830.1 -- 71
2021-02-09 16:00:00 1.5 23 Sudoeste 48 Sudoeste -- 830.1 -- 60
2021-02-09 15:00:00 1.6 24 Sudoeste 50 Oeste -- 829.3 -- 60
2021-02-09 14:00:00 1.4 23 Sudoeste 75 Noroeste -- 829 -- 66
2021-02-09 13:00:00 1.8 21 Oeste 54 Oeste -- 829.2 -- 50
2021-02-09 12:00:00 0.6 19 Oeste 32 Oeste -- 830.8 -- 91
2021-02-09 11:00:00 1.2 6 Oeste 39 Sur -- 829.6 -- 88
2021-02-09 10:00:00 2.1 20 Sur 62 Sur -- 829.4 -- 80
2021-02-09 09:00:00 2 22 Sur 60 Sur -- 829.7 -- 79
2021-02-09 08:00:00 1.6 21 Sur 50 Sur -- 829.8 -- 82
2021-02-09 07:00:00 1.3 19 Sur 49 Sudoeste -- 830.4 -- 83
2021-02-09 06:00:00 0.8 20 Sur 42 Sudeste -- 831.5 -- 86
2021-02-09 05:00:00 0.4 24 Sudeste 52 Sur -- 832.5 -- 87
2021-02-09 04:00:00 0.7 15 Sudeste 42 Sur -- 833.3 -- 84
2021-02-09 03:00:00 1.2 24 Sur 45 Sur -- 834.5 -- 80
2021-02-09 02:00:00 1.5 22 Sudoeste 42 Oeste -- 835 -- 79
2021-02-09 01:00:00 1.6 16 Oeste 40 Sur -- 835.5 -- 70
2021-02-09 00:00:00 0.7 10 Oeste 33 Sur -- 835.5 -- 85
2021-02-08 23:00:00 -0.1 19 Este 24 Este -- 835.3 -- 90
2021-02-08 22:00:00 0.1 9 Este 18 Este -- 834.9 -- 84
2021-02-08 21:00:00 1.4 10 Sudoeste 23 Oeste -- 835 -- 75
2021-02-08 20:00:00 1.3 17 Oeste 41 Oeste -- 834.6 -- 78
2021-02-08 19:00:00 1.1 19 Oeste 36 Noroeste -- 834.5 -- 84
2021-02-08 18:00:00 1.1 21 Oeste 39 Oeste -- 833.9 -- 87
2021-02-08 17:00:00 1.7 21 Oeste 30 Oeste -- 833.2 -- 80
2021-02-08 16:00:00 2.5 17 Noroeste 31 Oeste -- 832.5 -- 71
2021-02-08 15:00:00 2.6 18 Sudoeste 36 Oeste -- 832.3 -- 84
2021-02-08 14:00:00 2.1 14 Sudoeste 25 Sudoeste -- 832.3 -- 91
2021-02-08 13:00:00 2.6 5 Sudoeste 13 Este -- 832.5 -- 93
2021-02-08 12:00:00 1.4 8 Nordeste 28 Este -- 832.5 -- 90
2021-02-08 11:00:00 -0.3 18 Este 26 Este -- 832 -- 92
2021-02-08 10:00:00 -1 13 Este 20 Este -- 832 -- 94
2021-02-08 09:00:00 -1.8 13 Este 25 Este -- 831.5 -- 94
2021-02-08 08:00:00 -2 6 Este 13 Sudeste -- 831.2 -- 94
2021-02-08 07:00:00 -1.8 8 Sudeste 14 Este -- 831 -- 94
2021-02-08 06:00:00 -1.6 5 Sudeste 15 Nordeste -- 831 -- 94
2021-02-08 05:00:00 -1.3 8 Nordeste 25 Este -- 831.2 -- 94
2021-02-08 04:00:00 -1 8 Este 33 Este -- 831.5 -- 94
2021-02-08 03:00:00 -0.7 19 Este 48 Este -- 832.1 -- 94
2021-02-08 02:00:00 0.5 21 Sur 53 Sur -- 832.4 -- 88
2021-02-08 01:00:00 0.5 24 Sur 39 Sur -- 833.1 -- 89
2021-02-08 00:00:00 -0.1 23 Sur 42 Este -- 833.3 -- 94
2021-02-07 23:00:00 -0.4 17 Sudeste 55 Este -- 834.3 -- 95
2021-02-07 22:00:00 -1 32 Este 68 Este -- 834.5 -- 95
2021-02-07 21:00:00 -1 32 Este 56 Este -- 835 -- 95
2021-02-07 20:00:00 -1.2 17 Este 32 Este -- 835.5 -- 95
2021-02-07 19:00:00 -1.6 14 Este 25 Este -- 835.8 -- 94
2021-02-07 18:00:00 -1.7 19 Este 24 Este -- 836 -- 94
2021-02-07 17:00:00 -1.7 15 Este 22 Este -- 836.3 -- 93
2021-02-07 16:00:00 -1.7 15 Este 24 Este -- 836.7 -- 92
2021-02-07 15:00:00 -1.7 15 Este 21 Este -- 836.9 -- 91
2021-02-07 14:00:00 -1.8 9 Este 15 Este -- 837.5 -- 89
2021-02-07 13:00:00 -1.8 10 Este 14 Este -- 838 -- 86
2021-02-07 12:00:00 -2.5 8 Este 10 Este -- 838.5 -- 86
2021-02-07 11:00:00 -3.4 4 Este 10 Sudeste -- 838.5 -- 86
2021-02-07 10:00:00 -4.6 4 Este 7 Sudeste -- 838.5 -- 87
2021-02-07 09:00:00 -5.6 5 Sudeste 8 Este -- 838.4 -- 87
2021-02-07 08:00:00 -7.1 0 Calma 9 Este -- 838.5 -- 88
2021-02-07 07:00:00 -8.4 3 Oeste 6 Este -- 838.6 -- 88
2021-02-07 06:00:00 -6.6 3 Noroeste 16 Oeste -- 838.7 -- 89
2021-02-07 05:00:00 -6.5 11 Oeste 19 Oeste -- 838.8 -- 89
2021-02-07 04:00:00 -6.4 15 Oeste 27 Oeste -- 839.1 -- 91
2021-02-07 03:00:00 -4.4 18 Oeste 26 Oeste -- 839.4 -- 92
2021-02-07 02:00:00 -4.5 24 Oeste 32 Oeste -- 839.7 -- 92
2021-02-07 01:00:00 -3.9 22 Oeste 35 Oeste -- 839.9 -- 92
2021-02-07 00:00:00 -3.5 15 Noroeste 44 Oeste -- 839.8 -- 92
2021-02-06 23:00:00 -3 16 Noroeste 30 Oeste -- 839.7 -- 93
2021-02-06 22:00:00 -2.9 22 Noroeste 39 Noroeste -- 839.7 -- 92
2021-02-06 21:00:00 -2.6 27 Noroeste 47 Noroeste -- 839.2 -- 93
2021-02-06 20:00:00 -2.3 26 Noroeste 48 Noroeste -- 838.9 -- 92
2021-02-06 19:00:00 -2 18 Noroeste 42 Noroeste -- 838.3 -- 93
2021-02-06 18:00:00 -1.7 20 Noroeste 39 Noroeste -- 838 -- 93
2021-02-06 17:00:00 -1.4 24 Oeste 41 Oeste -- 837.5 -- 93
2021-02-06 16:00:00 -0.8 19 Oeste 41 Oeste -- 837.4 -- 92
2021-02-06 15:00:00 -0.8 22 Oeste 44 Noroeste -- 837.3 -- 92
2021-02-06 14:00:00 -0.6 20 Noroeste 41 Oeste -- 837.5 -- 92
2021-02-06 13:00:00 -0.6 23 Noroeste 41 Noroeste -- 837.7 -- 93
2021-02-06 12:00:00 -1 21 Oeste 34 Oeste -- 837.4 -- 94
2021-02-06 11:00:00 -1.1 18 Oeste 35 Oeste -- 837.1 -- 94
2021-02-06 10:00:00 -1.2 17 Oeste 28 Oeste -- 836.9 -- 94
2021-02-06 09:00:00 -1.2 18 Oeste 30 Noroeste -- 836.6 -- 94
2021-02-06 08:00:00 -1.1 18 Oeste 30 Oeste -- 836.3 -- 94
2021-02-06 07:00:00 -0.9 12 Oeste 27 Oeste -- 836.2 -- 94
2021-02-06 06:00:00 -0.9 18 Oeste 30 Oeste -- 836.1 -- 94
2021-02-06 05:00:00 -0.7 19 Oeste 29 Noroeste -- 835.9 -- 94
2021-02-06 04:00:00 -0.5 16 Oeste 26 Noroeste -- 836.2 -- 95
2021-02-06 03:00:00 -0.7 20 Oeste 27 Oeste -- 836.7 -- 95
2021-02-06 02:00:00 -0.3 11 Oeste 20 Oeste -- 837.1 -- 95
2021-02-06 01:00:00 -0.3 16 Oeste 22 Oeste -- 837.6 -- 95
2021-02-06 00:00:00 0 14 Oeste 19 Oeste -- 837.7 -- 95
2021-02-05 23:00:00 0 13 Noroeste 19 Noroeste -- 837.9 -- 95
2021-02-05 22:00:00 0.2 12 Oeste 17 Oeste -- 837.8 -- 95
2021-02-05 21:00:00 0.4 12 Noroeste 16 Noroeste -- 837.7 -- 95
2021-02-05 20:00:00 0.6 8 Noroeste 21 Oeste -- 838 -- 94
2021-02-05 19:00:00 0.9 10 Noroeste 31 Oeste -- 837.8 -- 94
2021-02-05 18:00:00 0.6 14 Oeste 19 Oeste -- 837.7 -- 94
2021-02-05 17:00:00 0.7 13 Oeste 23 Oeste -- 838.2 -- 94
2021-02-05 16:00:00 1.3 17 Oeste 21 Oeste -- 838.1 -- 92
2021-02-05 15:00:00 2.3 5 Sudeste 17 Nordeste -- 838.7 -- 87
2021-02-05 14:00:00 1 11 Este 14 Este -- 839.1 -- 91
2021-02-05 13:00:00 0.8 6 Este 8 Este -- 839.9 -- 92
2021-02-05 12:00:00 0.7 3 Sudeste 9 Sur -- 840.7 -- 92
2021-02-05 11:00:00 0.3 5 Oeste 15 Oeste -- 840.9 -- 94
2021-02-05 10:00:00 0.2 8 Oeste 13 Oeste -- 840.9 -- 94
2021-02-05 09:00:00 0.3 13 Oeste 16 Oeste -- 840.8 -- 94
2021-02-05 08:00:00 0.2 9 Noroeste 12 Oeste -- 840.7 -- 94
2021-02-05 07:00:00 0.2 8 Oeste 12 Oeste -- 841 -- 94
2021-02-05 06:00:00 0.4 6 Noroeste 9 Noroeste -- 841.2 -- 93
2021-02-05 05:00:00 0.4 3 Sudeste 13 Sur -- 841.2 -- 93
2021-02-05 04:00:00 0.5 10 Sur 13 Sur -- 841.2 -- 94
2021-02-05 03:00:00 0.5 3 Este 9 Sudeste -- 841.7 -- 94
2021-02-05 02:00:00 0.6 6 Sudeste 15 Este -- 841.9 -- 94
2021-02-05 01:00:00 0.6 9 Este 22 Este -- 842.1 -- 94
2021-02-05 00:00:00 0.5 10 Este 26 Este -- 842.1 -- 94
2021-02-04 23:00:00 0.5 18 Este 26 Este -- 841.9 -- 94
2021-02-04 22:00:00 0.5 12 Este 17 Este -- 841.7 -- 93
2021-02-04 21:00:00 0.7 5 Este 18 Este -- 841.6 -- 93
2021-02-04 20:00:00 1 5 Nordeste 19 Nordeste -- 841.3 -- 92
2021-02-04 19:00:00 0.8 13 Este 17 Este -- 841.1 -- 92
2021-02-04 18:00:00 0.8 9 Este 17 Este -- 841 -- 92
2021-02-04 17:00:00 0.8 12 Este 18 Este -- 840.6 -- 92
2021-02-04 16:00:00 0.9 12 Este 15 Este -- 840.9 -- 91
2021-02-04 15:00:00 1.2 8 Este 17 Este -- 841.3 -- 87
2021-02-04 14:00:00 1.7 -- -- -- -- -- 841.8 -- 83
2021-02-04 13:00:00 1.8 14 Este 24 Este -- 842.4 -- 84
2021-02-04 12:00:00 2.2 11 Este 26 Sudeste -- 843 -- 79
2021-02-04 11:00:00 1.7 18 Este 31 Este -- 842.5 -- 82
2021-02-04 10:00:00 1.9 12 Sur 28 Sur -- 842.3 -- 80
2021-02-04 09:00:00 1.9 9 Sur 32 Sudoeste -- 842.2 -- 78
2021-02-04 08:00:00 1.9 8 Sudeste 25 Sur -- 841.8 -- 79
2021-02-04 07:00:00 2 12 Sur 29 Sur -- 841.7 -- 79
2021-02-04 06:00:00 2.1 19 Sudeste 36 Sudeste -- 841.3 -- 77
2021-02-04 05:00:00 2 16 Sur 42 Sur -- 841.2 -- 81
2021-02-04 04:00:00 2.4 14 Sur 41 Sur -- 841.4 -- 75
2021-02-04 03:00:00 2.6 12 Sur 32 Sur -- 841.7 -- 72
2021-02-04 02:00:00 3 19 Sur 43 Sur -- 841.7 -- 69
2021-02-04 01:00:00 3.3 13 Sudoeste 39 Sur -- 841.8 -- 73
2021-02-04 00:00:00 3.1 15 Sur 35 Sur -- 841.7 -- 78
2021-02-03 23:00:00 3.8 18 Sudoeste 45 Noroeste -- 841.8 -- 68
2021-02-03 22:00:00 3.8 15 Sudoeste 55 Oeste -- 841.7 -- 68
2021-02-03 21:00:00 3.8 14 Sudoeste 39 Oeste -- 841.9 -- 69
2021-02-03 20:00:00 4 7 Sudoeste 48 Sudeste -- 841.7 -- 69
2021-02-03 19:00:00 4.3 6 Sudoeste 30 Sudoeste -- 841.6 -- 68
2021-02-03 18:00:00 4.7 8 Sudoeste 35 Oeste -- 841.6 -- 66
2021-02-03 17:00:00 5.1 8 Sudoeste 27 Oeste -- 841.6 -- 62
2021-02-03 16:00:00 5.1 6 Sudoeste 24 Oeste -- 842 -- 62
2021-02-03 15:00:00 5.1 9 Sudoeste 28 Sur -- 842.3 -- 57
2021-02-03 14:00:00 5 8 Sur 46 Oeste -- 842.3 -- 58
2021-02-03 13:00:00 4.3 12 Sudoeste 69 Noroeste -- 842.2 -- 60
2021-02-03 12:00:00 3.9 16 Noroeste 67 Sur -- 842.4 -- 60
2021-02-03 11:00:00 3.4 14 Oeste 55 Oeste -- 842 -- 64
2021-02-03 10:00:00 3.5 14 Sudoeste 51 Sudoeste -- 841.3 -- 61
2021-02-03 09:00:00 3.5 13 Sudoeste 41 Sur -- 840.8 -- 58
2021-02-03 08:00:00 4.1 16 Oeste 58 Oeste -- 840.3 -- 51
2021-02-03 07:00:00 4.3 14 Oeste 59 Oeste -- 839.8 -- 71
2021-02-03 06:00:00 5.3 13 Oeste 74 Sur -- 839.2 -- 71
2021-02-03 05:00:00 5.7 22 Sudoeste 58 Sudoeste -- 838.8 -- 74
2021-02-03 04:00:00 5.6 19 Oeste 57 Sur -- 838.9 -- 79
2021-02-03 03:00:00 5.5 18 Sur 58 Sur -- 839.1 -- 79
2021-02-03 02:00:00 5.7 27 Sur 64 Sur -- 839.2 -- 78
2021-02-03 01:00:00 5.4 26 Sur 72 Sur -- 839.6 -- 81
2021-02-03 00:00:00 5.8 35 Sur 65 Sur -- 839.9 -- 80
2021-02-02 23:00:00 5.4 24 Sur 57 Sudeste -- 841 -- 81
2021-02-02 22:00:00 5.3 22 Sur 51 Sur -- 841.7 -- 82
2021-02-02 21:00:00 4.9 18 Sudeste 49 Sudeste -- 842.5 -- 84
2021-02-02 20:00:00 5.1 19 Sur 58 Sur -- 842.7 -- 83
2021-02-02 19:00:00 5.2 19 Sur 44 Sur -- 843.3 -- 80
2021-02-02 18:00:00 5.2 19 Sur 46 Sudeste -- 843.5 -- 83
2021-02-02 17:00:00 5.5 17 Sur 35 Sudeste -- 844 -- 84
2021-02-02 16:00:00 5.5 16 Sur 33 Sur -- 844.1 -- 83
2021-02-02 15:00:00 6.3 20 Sur 42 Sur -- 844.9 -- 78
2021-02-02 14:00:00 5.5 21 Sur 35 Sur -- 845.6 -- 81
2021-02-02 13:00:00 4.7 8 Sur 40 Este -- 846.9 -- 86
2021-02-02 12:00:00 6.1 27 Sur 48 Este -- 846.6 -- 76
2021-02-02 11:00:00 3.8 31 Este 50 Este -- 845.9 -- 90
2021-02-02 10:00:00 4.2 19 Sudeste 50 Este -- 846.2 -- 86
2021-02-02 09:00:00 4.7 22 Este 43 Nordeste -- 845.9 -- 79
2021-02-02 08:00:00 5.4 12 Sur 40 Sur -- 845.8 -- 77
2021-02-02 07:00:00 4.9 14 Sur 41 Sur -- 846.4 -- 80
2021-02-02 06:00:00 5.1 21 Sur 39 Sudoeste -- 846.4 -- 75
2021-02-02 05:00:00 5.6 28 Sudoeste 53 Sudoeste -- 846.3 -- 72
2021-02-02 04:00:00 6 36 Sudoeste 53 Sur -- 846.1 -- 69
2021-02-02 03:00:00 6.2 25 Sudoeste 50 Sur -- 846.4 -- 73
2021-02-02 02:00:00 6.3 31 Sudoeste 50 Sudoeste -- 846.5 -- 70
2021-02-02 01:00:00 5.6 32 Sur 50 Sudoeste -- 846.5 -- 78
2021-02-02 00:00:00 6.1 32 Sur 53 Sudoeste -- 846 -- 75
2021-02-01 23:00:00 4.4 9 Nordeste 34 Este -- 846.6 -- 86
2021-02-01 22:00:00 3.8 26 Este 39 Este -- 846.3 -- 92
2021-02-01 21:00:00 4 10 Este 25 Nordeste -- 846.7 -- 90
2021-02-01 20:00:00 4.6 13 Este 18 Este -- 847 -- 83
2021-02-01 19:00:00 5.5 4 Sudeste 14 Sudoeste -- 846.9 -- 72
2021-02-01 18:00:00 7.6 12 Oeste 26 Oeste -- 846.5 -- 64
2021-02-01 17:00:00 6.9 12 Oeste 24 Oeste -- 846.1 -- 61
2021-02-01 16:00:00 6.9 21 Oeste 30 Noroeste -- 846 -- 57
2021-02-01 15:00:00 6.8 16 Oeste 50 Oeste -- 845.8 -- 60
2021-02-01 14:00:00 7.6 30 Oeste 51 Oeste -- 846 -- 52
2021-02-01 13:00:00 7.1 41 Oeste 74 Oeste -- 845.9 -- 54
2021-02-01 12:00:00 6.3 43 Oeste 80 Noroeste -- 845.9 -- 71
2021-02-01 11:00:00 5.8 43 Oeste 84 Oeste -- 845.4 -- 75
2021-02-01 10:00:00 5.9 47 Oeste 84 Oeste -- 844.8 -- 74
2021-02-01 09:00:00 6.2 49 Oeste 75 Noroeste -- 844 -- 70
2021-02-01 08:00:00 6 36 Oeste 57 Oeste -- 843.8 -- 59
2021-02-01 07:00:00 4.7 23 Oeste 42 Noroeste -- 843.5 -- 56
2021-02-01 06:00:00 4.9 24 Oeste 53 Oeste -- 843 -- 49
2021-02-01 05:00:00 4.7 27 Oeste 53 Oeste -- 842.5 -- 50
2021-02-01 04:00:00 3.9 26 Oeste 40 Oeste -- 842.3 -- 59
2021-02-01 03:00:00 3.5 24 Oeste 48 Oeste -- 841.9 -- 66
2021-02-01 02:00:00 4 30 Oeste 74 Oeste -- 841.8 -- 65
2021-02-01 01:00:00 4.4 40 Oeste 76 Noroeste -- 841.6 -- 63
2021-02-01 00:00:00 4.7 41 Oeste 75 Noroeste -- 841.2 -- 60